sensor_id;sensor_type;location;lat;lon;timestamp;P1;durP1;ratioP1;P2;durP2;ratioP2
42864;SDS011;28511;42.680;23.252;2023-03-31T00:02:16;5.72;;;3.13;;
42864;SDS011;28511;42.680;23.252;2023-03-31T00:04:46;8.27;;;3.17;;
42864;SDS011;28511;42.680;23.252;2023-03-31T00:07:16;4.07;;;2.75;;
42864;SDS011;28511;42.680;23.252;2023-03-31T00:09:46;4.55;;;3.20;;
42864;SDS011;28511;42.680;23.252;2023-03-31T00:12:12;4.22;;;2.75;;
42864;SDS011;28511;42.680;23.252;2023-03-31T00:14:38;5.30;;;3.22;;
42864;SDS011;28511;42.680;23.252;2023-03-31T00:17:03;7.18;;;3.17;;
42864;SDS011;28511;42.680;23.252;2023-03-31T00:19:29;6.13;;;3.40;;
42864;SDS011;28511;42.680;23.252;2023-03-31T00:21:57;7.63;;;3.05;;
42864;SDS011;28511;42.680;23.252;2023-03-31T00:24:26;5.88;;;3.33;;
42864;SDS011;28511;42.680;23.252;2023-03-31T00:26:51;5.95;;;2.63;;
42864;SDS011;28511;42.680;23.252;2023-03-31T00:29:16;5.70;;;3.03;;
42864;SDS011;28511;42.680;23.252;2023-03-31T00:31:41;5.07;;;2.70;;
42864;SDS011;28511;42.680;23.252;2023-03-31T00:34:07;5.45;;;3.35;;
42864;SDS011;28511;42.680;23.252;2023-03-31T00:36:32;6.70;;;3.05;;
42864;SDS011;28511;42.680;23.252;2023-03-31T00:39:01;6.55;;;4.00;;
42864;SDS011;28511;42.680;23.252;2023-03-31T00:41:30;5.70;;;2.53;;
42864;SDS011;28511;42.680;23.252;2023-03-31T00:44:15;6.95;;;3.38;;
42864;SDS011;28511;42.680;23.252;2023-03-31T00:46:50;5.65;;;3.50;;
42864;SDS011;28511;42.680;23.252;2023-03-31T00:49:21;6.38;;;3.22;;
42864;SDS011;28511;42.680;23.252;2023-03-31T00:51:48;5.18;;;3.03;;
42864;SDS011;28511;42.680;23.252;2023-03-31T00:54:14;6.50;;;3.28;;
42864;SDS011;28511;42.680;23.252;2023-03-31T00:56:40;5.45;;;2.88;;
42864;SDS011;28511;42.680;23.252;2023-03-31T00:59:09;4.50;;;2.92;;
42864;SDS011;28511;42.680;23.252;2023-03-31T01:01:35;4.38;;;3.17;;
42864;SDS011;28511;42.680;23.252;2023-03-31T01:04:01;10.35;;;3.70;;
42864;SDS011;28511;42.680;23.252;2023-03-31T01:06:27;7.78;;;3.15;;
42864;SDS011;28511;42.680;23.252;2023-03-31T01:08:54;8.93;;;3.53;;
42864;SDS011;28511;42.680;23.252;2023-03-31T01:11:21;5.20;;;2.70;;
42864;SDS011;28511;42.680;23.252;2023-03-31T01:13:47;6.60;;;3.55;;
42864;SDS011;28511;42.680;23.252;2023-03-31T01:16:15;8.75;;;3.80;;
42864;SDS011;28511;42.680;23.252;2023-03-31T01:18:40;6.20;;;3.90;;
42864;SDS011;28511;42.680;23.252;2023-03-31T01:37:35;9.93;;;3.58;;
42864;SDS011;28511;42.680;23.252;2023-03-31T01:42:51;8.85;;;4.10;;
42864;SDS011;28511;42.680;23.252;2023-03-31T01:47:46;6.97;;;3.43;;
42864;SDS011;28511;42.680;23.252;2023-03-31T01:55:48;8.55;;;4.25;;
42864;SDS011;28511;42.680;23.252;2023-03-31T01:58:51;10.40;;;3.83;;
42864;SDS011;28511;42.680;23.252;2023-03-31T02:01:17;11.70;;;3.13;;
42864;SDS011;28511;42.680;23.252;2023-03-31T02:03:46;7.65;;;4.03;;
42864;SDS011;28511;42.680;23.252;2023-03-31T02:06:18;8.68;;;4.10;;
42864;SDS011;28511;42.680;23.252;2023-03-31T02:08:50;4.93;;;3.00;;
42864;SDS011;28511;42.680;23.252;2023-03-31T02:11:19;7.63;;;4.60;;
42864;SDS011;28511;42.680;23.252;2023-03-31T02:13:45;6.32;;;2.20;;
42864;SDS011;28511;42.680;23.252;2023-03-31T02:16:12;1.77;;;0.93;;
42864;SDS011;28511;42.680;23.252;2023-03-31T02:18:41;1.40;;;0.50;;
42864;SDS011;28511;42.680;23.252;2023-03-31T02:21:07;2.00;;;1.10;;
42864;SDS011;28511;42.680;23.252;2023-03-31T02:23:32;2.67;;;1.02;;
42864;SDS011;28511;42.680;23.252;2023-03-31T02:26:04;2.13;;;0.85;;
42864;SDS011;28511;42.680;23.252;2023-03-31T02:28:31;1.23;;;1.13;;
42864;SDS011;28511;42.680;23.252;2023-03-31T02:31:01;3.22;;;2.05;;
42864;SDS011;28511;42.680;23.252;2023-03-31T02:33:28;1.25;;;0.93;;
42864;SDS011;28511;42.680;23.252;2023-03-31T02:35:53;2.58;;;1.30;;
42864;SDS011;28511;42.680;23.252;2023-03-31T02:38:19;0.80;;;0.80;;
42864;SDS011;28511;42.680;23.252;2023-03-31T02:40:44;0.98;;;0.88;;
42864;SDS011;28511;42.680;23.252;2023-03-31T02:43:09;1.85;;;0.88;;
42864;SDS011;28511;42.680;23.252;2023-03-31T02:45:42;1.95;;;0.80;;
42864;SDS011;28511;42.680;23.252;2023-03-31T02:48:29;1.40;;;1.15;;
42864;SDS011;28511;42.680;23.252;2023-03-31T03:01:19;1.98;;;1.33;;
42864;SDS011;28511;42.680;23.252;2023-03-31T03:03:53;0.80;;;0.75;;
42864;SDS011;28511;42.680;23.252;2023-03-31T03:11:50;1.63;;;1.15;;
42864;SDS011;28511;42.680;23.252;2023-03-31T03:16:49;0.95;;;0.80;;
42864;SDS011;28511;42.680;23.252;2023-03-31T03:19:20;2.97;;;0.90;;
42864;SDS011;28511;42.680;23.252;2023-03-31T03:21:46;2.78;;;0.88;;
42864;SDS011;28511;42.680;23.252;2023-03-31T03:24:12;1.63;;;0.98;;
42864;SDS011;28511;42.680;23.252;2023-03-31T03:26:37;2.08;;;1.70;;
42864;SDS011;28511;42.680;23.252;2023-03-31T03:29:04;2.25;;;1.52;;
42864;SDS011;28511;42.680;23.252;2023-03-31T03:31:29;2.33;;;0.85;;
42864;SDS011;28511;42.680;23.252;2023-03-31T03:33:55;4.38;;;1.25;;
42864;SDS011;28511;42.680;23.252;2023-03-31T03:36:20;1.42;;;0.73;;
42864;SDS011;28511;42.680;23.252;2023-03-31T03:38:47;1.20;;;1.05;;
42864;SDS011;28511;42.680;23.252;2023-03-31T03:41:12;2.80;;;1.55;;
42864;SDS011;28511;42.680;23.252;2023-03-31T03:43:37;1.17;;;0.82;;
42864;SDS011;28511;42.680;23.252;2023-03-31T03:46:02;3.83;;;1.40;;
42864;SDS011;28511;42.680;23.252;2023-03-31T03:48:28;3.67;;;1.83;;
42864;SDS011;28511;42.680;23.252;2023-03-31T03:50:54;1.00;;;0.85;;
42864;SDS011;28511;42.680;23.252;2023-03-31T03:53:19;1.85;;;1.13;;
42864;SDS011;28511;42.680;23.252;2023-03-31T03:55:45;1.75;;;1.00;;
42864;SDS011;28511;42.680;23.252;2023-03-31T03:58:13;0.93;;;0.77;;
42864;SDS011;28511;42.680;23.252;2023-03-31T04:00:38;2.38;;;1.13;;
42864;SDS011;28511;42.680;23.252;2023-03-31T04:03:03;3.60;;;1.45;;
42864;SDS011;28511;42.680;23.252;2023-03-31T04:05:28;2.10;;;1.27;;
42864;SDS011;28511;42.680;23.252;2023-03-31T04:07:54;3.00;;;1.20;;
42864;SDS011;28511;42.680;23.252;2023-03-31T04:10:19;0.80;;;0.80;;
42864;SDS011;28511;42.680;23.252;2023-03-31T04:12:44;3.33;;;1.23;;
42864;SDS011;28511;42.680;23.252;2023-03-31T04:15:09;1.10;;;0.88;;
42864;SDS011;28511;42.680;23.252;2023-03-31T04:17:35;3.53;;;1.40;;
42864;SDS011;28511;42.680;23.252;2023-03-31T04:20:01;1.65;;;1.23;;
42864;SDS011;28511;42.680;23.252;2023-03-31T04:22:29;1.65;;;1.13;;
42864;SDS011;28511;42.680;23.252;2023-03-31T04:25:00;2.60;;;1.17;;
42864;SDS011;28511;42.680;23.252;2023-03-31T04:27:25;2.78;;;1.08;;
42864;SDS011;28511;42.680;23.252;2023-03-31T04:29:51;2.25;;;0.93;;
42864;SDS011;28511;42.680;23.252;2023-03-31T04:32:18;0.95;;;0.93;;
42864;SDS011;28511;42.680;23.252;2023-03-31T04:34:45;3.63;;;1.83;;
42864;SDS011;28511;42.680;23.252;2023-03-31T04:37:11;1.75;;;0.85;;
42864;SDS011;28511;42.680;23.252;2023-03-31T04:39:36;1.98;;;1.25;;
42864;SDS011;28511;42.680;23.252;2023-03-31T04:42:01;1.85;;;0.95;;
42864;SDS011;28511;42.680;23.252;2023-03-31T04:44:27;1.10;;;0.90;;
42864;SDS011;28511;42.680;23.252;2023-03-31T04:46:53;1.20;;;1.10;;
42864;SDS011;28511;42.680;23.252;2023-03-31T04:49:18;2.72;;;1.15;;
42864;SDS011;28511;42.680;23.252;2023-03-31T04:51:44;3.63;;;1.35;;
42864;SDS011;28511;42.680;23.252;2023-03-31T04:54:09;4.05;;;1.58;;
42864;SDS011;28511;42.680;23.252;2023-03-31T04:56:35;2.53;;;1.05;;
42864;SDS011;28511;42.680;23.252;2023-03-31T04:59:00;1.25;;;1.00;;
42864;SDS011;28511;42.680;23.252;2023-03-31T05:01:27;2.88;;;1.20;;
42864;SDS011;28511;42.680;23.252;2023-03-31T05:03:57;2.85;;;1.38;;
42864;SDS011;28511;42.680;23.252;2023-03-31T05:06:22;2.05;;;1.00;;
42864;SDS011;28511;42.680;23.252;2023-03-31T05:08:47;2.25;;;1.15;;
42864;SDS011;28511;42.680;23.252;2023-03-31T05:11:13;2.05;;;1.13;;
42864;SDS011;28511;42.680;23.252;2023-03-31T05:13:38;1.98;;;1.05;;
42864;SDS011;28511;42.680;23.252;2023-03-31T05:16:07;1.67;;;0.90;;
42864;SDS011;28511;42.680;23.252;2023-03-31T05:18:33;1.23;;;1.10;;
42864;SDS011;28511;42.680;23.252;2023-03-31T05:21:07;5.28;;;1.58;;
42864;SDS011;28511;42.680;23.252;2023-03-31T05:23:32;2.17;;;1.25;;
42864;SDS011;28511;42.680;23.252;2023-03-31T05:25:57;1.83;;;0.67;;
42864;SDS011;28511;42.680;23.252;2023-03-31T05:28:22;1.37;;;0.93;;
42864;SDS011;28511;42.680;23.252;2023-03-31T05:30:48;2.23;;;1.03;;
42864;SDS011;28511;42.680;23.252;2023-03-31T05:33:13;2.45;;;1.27;;
42864;SDS011;28511;42.680;23.252;2023-03-31T05:35:38;2.22;;;1.10;;
42864;SDS011;28511;42.680;23.252;2023-03-31T05:38:03;2.40;;;1.20;;
42864;SDS011;28511;42.680;23.252;2023-03-31T05:40:29;1.92;;;1.00;;
42864;SDS011;28511;42.680;23.252;2023-03-31T05:42:54;1.80;;;1.00;;
42864;SDS011;28511;42.680;23.252;2023-03-31T05:45:20;2.47;;;1.15;;
42864;SDS011;28511;42.680;23.252;2023-03-31T05:47:45;1.33;;;1.17;;
42864;SDS011;28511;42.680;23.252;2023-03-31T05:50:10;2.22;;;1.17;;
42864;SDS011;28511;42.680;23.252;2023-03-31T05:52:35;1.23;;;0.93;;
42864;SDS011;28511;42.680;23.252;2023-03-31T05:55:01;2.30;;;1.45;;
42864;SDS011;28511;42.680;23.252;2023-03-31T05:57:26;3.83;;;1.42;;
42864;SDS011;28511;42.680;23.252;2023-03-31T05:59:52;4.15;;;1.95;;
42864;SDS011;28511;42.680;23.252;2023-03-31T06:02:17;2.40;;;1.53;;
42864;SDS011;28511;42.680;23.252;2023-03-31T06:04:42;3.97;;;0.83;;
42864;SDS011;28511;42.680;23.252;2023-03-31T06:07:08;1.77;;;1.10;;
42864;SDS011;28511;42.680;23.252;2023-03-31T06:09:34;2.15;;;1.17;;
42864;SDS011;28511;42.680;23.252;2023-03-31T06:11:59;3.35;;;1.25;;
42864;SDS011;28511;42.680;23.252;2023-03-31T06:14:25;1.83;;;1.08;;
42864;SDS011;28511;42.680;23.252;2023-03-31T06:16:51;2.45;;;1.30;;
42864;SDS011;28511;42.680;23.252;2023-03-31T06:19:16;1.58;;;1.00;;
42864;SDS011;28511;42.680;23.252;2023-03-31T06:21:41;3.88;;;1.80;;
42864;SDS011;28511;42.680;23.252;2023-03-31T06:24:10;1.87;;;0.83;;
42864;SDS011;28511;42.680;23.252;2023-03-31T06:26:35;0.98;;;0.93;;
42864;SDS011;28511;42.680;23.252;2023-03-31T06:29:00;2.35;;;1.08;;
42864;SDS011;28511;42.680;23.252;2023-03-31T06:31:25;8.70;;;1.17;;
42864;SDS011;28511;42.680;23.252;2023-03-31T06:33:51;4.50;;;1.02;;
42864;SDS011;28511;42.680;23.252;2023-03-31T06:36:17;2.80;;;0.90;;
42864;SDS011;28511;42.680;23.252;2023-03-31T06:38:44;2.08;;;0.98;;
42864;SDS011;28511;42.680;23.252;2023-03-31T06:41:10;2.65;;;1.75;;
42864;SDS011;28511;42.680;23.252;2023-03-31T06:43:36;2.10;;;1.17;;
42864;SDS011;28511;42.680;23.252;2023-03-31T06:46:01;1.85;;;1.40;;
42864;SDS011;28511;42.680;23.252;2023-03-31T06:48:26;3.17;;;1.67;;
42864;SDS011;28511;42.680;23.252;2023-03-31T06:50:52;1.40;;;1.00;;
42864;SDS011;28511;42.680;23.252;2023-03-31T06:53:18;2.42;;;1.70;;
42864;SDS011;28511;42.680;23.252;2023-03-31T06:55:43;2.33;;;0.98;;
42864;SDS011;28511;42.680;23.252;2023-03-31T06:58:09;1.30;;;1.20;;
42864;SDS011;28511;42.680;23.252;2023-03-31T07:00:35;1.63;;;0.90;;
42864;SDS011;28511;42.680;23.252;2023-03-31T07:03:00;2.17;;;1.20;;
42864;SDS011;28511;42.680;23.252;2023-03-31T07:05:27;1.45;;;1.25;;
42864;SDS011;28511;42.680;23.252;2023-03-31T07:07:56;4.68;;;1.67;;
42864;SDS011;28511;42.680;23.252;2023-03-31T07:10:23;1.17;;;1.05;;
42864;SDS011;28511;42.680;23.252;2023-03-31T07:12:48;2.15;;;1.23;;
42864;SDS011;28511;42.680;23.252;2023-03-31T07:15:14;2.30;;;1.17;;
42864;SDS011;28511;42.680;23.252;2023-03-31T07:17:39;1.00;;;0.90;;
42864;SDS011;28511;42.680;23.252;2023-03-31T07:20:08;3.63;;;1.27;;
42864;SDS011;28511;42.680;23.252;2023-03-31T07:22:36;4.97;;;1.67;;
42864;SDS011;28511;42.680;23.252;2023-03-31T07:25:02;2.55;;;1.38;;
42864;SDS011;28511;42.680;23.252;2023-03-31T07:27:27;4.85;;;0.98;;
42864;SDS011;28511;42.680;23.252;2023-03-31T07:29:52;2.58;;;1.20;;
42864;SDS011;28511;42.680;23.252;2023-03-31T07:32:18;2.03;;;1.43;;
42864;SDS011;28511;42.680;23.252;2023-03-31T07:34:43;2.27;;;1.60;;
42864;SDS011;28511;42.680;23.252;2023-03-31T07:37:08;3.58;;;1.90;;
42864;SDS011;28511;42.680;23.252;2023-03-31T07:39:34;5.07;;;1.57;;
42864;SDS011;28511;42.680;23.252;2023-03-31T07:42:00;2.30;;;1.52;;
42864;SDS011;28511;42.680;23.252;2023-03-31T07:44:26;4.78;;;1.98;;
42864;SDS011;28511;42.680;23.252;2023-03-31T07:46:51;3.17;;;1.70;;
42864;SDS011;28511;42.680;23.252;2023-03-31T07:49:16;6.57;;;1.63;;
42864;SDS011;28511;42.680;23.252;2023-03-31T07:51:42;2.13;;;1.48;;
42864;SDS011;28511;42.680;23.252;2023-03-31T07:54:07;5.13;;;1.27;;
42864;SDS011;28511;42.680;23.252;2023-03-31T07:56:32;2.30;;;1.60;;
42864;SDS011;28511;42.680;23.252;2023-03-31T07:58:57;4.67;;;2.20;;
42864;SDS011;28511;42.680;23.252;2023-03-31T08:01:23;3.67;;;1.65;;
42864;SDS011;28511;42.680;23.252;2023-03-31T08:03:49;2.72;;;1.58;;
42864;SDS011;28511;42.680;23.252;2023-03-31T08:06:20;2.03;;;1.10;;
42864;SDS011;28511;42.680;23.252;2023-03-31T08:08:47;2.63;;;1.63;;
42864;SDS011;28511;42.680;23.252;2023-03-31T08:11:12;7.03;;;1.70;;
42864;SDS011;28511;42.680;23.252;2023-03-31T08:13:38;6.10;;;1.88;;
42864;SDS011;28511;42.680;23.252;2023-03-31T08:16:03;2.15;;;1.42;;
42864;SDS011;28511;42.680;23.252;2023-03-31T08:18:29;4.80;;;1.13;;
42864;SDS011;28511;42.680;23.252;2023-03-31T08:20:54;6.05;;;2.00;;
42864;SDS011;28511;42.680;23.252;2023-03-31T08:23:19;3.50;;;1.98;;
42864;SDS011;28511;42.680;23.252;2023-03-31T08:25:45;6.63;;;2.65;;
42864;SDS011;28511;42.680;23.252;2023-03-31T08:28:10;5.37;;;2.20;;
42864;SDS011;28511;42.680;23.252;2023-03-31T08:30:38;15.02;;;2.58;;
42864;SDS011;28511;42.680;23.252;2023-03-31T08:33:03;4.00;;;1.30;;
42864;SDS011;28511;42.680;23.252;2023-03-31T08:35:29;2.77;;;1.57;;
42864;SDS011;28511;42.680;23.252;2023-03-31T08:37:54;1.47;;;1.23;;
42864;SDS011;28511;42.680;23.252;2023-03-31T08:40:21;2.95;;;1.25;;
42864;SDS011;28511;42.680;23.252;2023-03-31T08:42:52;4.57;;;1.17;;
42864;SDS011;28511;42.680;23.252;2023-03-31T08:45:22;4.45;;;1.48;;
42864;SDS011;28511;42.680;23.252;2023-03-31T08:47:49;1.50;;;1.00;;
42864;SDS011;28511;42.680;23.252;2023-03-31T08:50:16;2.90;;;1.52;;
42864;SDS011;28511;42.680;23.252;2023-03-31T08:52:44;7.53;;;1.90;;
42864;SDS011;28511;42.680;23.252;2023-03-31T08:55:17;1.93;;;1.10;;
42864;SDS011;28511;42.680;23.252;2023-03-31T08:57:52;1.65;;;1.17;;
42864;SDS011;28511;42.680;23.252;2023-03-31T09:00:18;2.05;;;1.20;;
42864;SDS011;28511;42.680;23.252;2023-03-31T09:03:05;6.45;;;2.45;;
42864;SDS011;28511;42.680;23.252;2023-03-31T09:13:33;3.22;;;1.15;;
42864;SDS011;28511;42.680;23.252;2023-03-31T09:16:05;1.88;;;1.08;;
42864;SDS011;28511;42.680;23.252;2023-03-31T09:18:34;13.52;;;1.73;;
42864;SDS011;28511;42.680;23.252;2023-03-31T09:21:10;3.03;;;1.52;;
42864;SDS011;28511;42.680;23.252;2023-03-31T09:23:42;0.90;;;0.70;;
42864;SDS011;28511;42.680;23.252;2023-03-31T09:26:11;4.30;;;1.70;;
42864;SDS011;28511;42.680;23.252;2023-03-31T09:28:41;2.75;;;1.65;;
42864;SDS011;28511;42.680;23.252;2023-03-31T09:31:10;1.90;;;1.42;;
42864;SDS011;28511;42.680;23.252;2023-03-31T09:36:04;1.40;;;1.30;;
42864;SDS011;28511;42.680;23.252;2023-03-31T09:38:32;2.08;;;1.40;;
42864;SDS011;28511;42.680;23.252;2023-03-31T09:40:58;3.20;;;1.20;;
42864;SDS011;28511;42.680;23.252;2023-03-31T09:43:27;3.53;;;1.42;;
42864;SDS011;28511;42.680;23.252;2023-03-31T09:45:53;3.15;;;1.30;;
42864;SDS011;28511;42.680;23.252;2023-03-31T09:48:25;2.63;;;1.30;;
42864;SDS011;28511;42.680;23.252;2023-03-31T09:50:56;4.22;;;1.77;;
42864;SDS011;28511;42.680;23.252;2023-03-31T09:53:39;3.38;;;1.33;;
42864;SDS011;28511;42.680;23.252;2023-03-31T09:56:06;3.63;;;1.70;;
42864;SDS011;28511;42.680;23.252;2023-03-31T09:58:41;2.10;;;1.58;;
42864;SDS011;28511;42.680;23.252;2023-03-31T10:01:07;3.63;;;1.88;;
42864;SDS011;28511;42.680;23.252;2023-03-31T10:03:40;1.35;;;1.05;;
42864;SDS011;28511;42.680;23.252;2023-03-31T10:06:08;2.47;;;1.50;;
42864;SDS011;28511;42.680;23.252;2023-03-31T10:08:37;6.97;;;1.60;;
42864;SDS011;28511;42.680;23.252;2023-03-31T10:13:33;2.23;;;1.00;;
42864;SDS011;28511;42.680;23.252;2023-03-31T10:16:03;6.10;;;2.33;;
42864;SDS011;28511;42.680;23.252;2023-03-31T10:18:35;2.60;;;1.60;;
42864;SDS011;28511;42.680;23.252;2023-03-31T10:21:01;6.80;;;1.52;;
42864;SDS011;28511;42.680;23.252;2023-03-31T10:23:28;1.88;;;0.90;;
42864;SDS011;28511;42.680;23.252;2023-03-31T10:25:53;3.63;;;1.55;;
42864;SDS011;28511;42.680;23.252;2023-03-31T10:28:19;1.92;;;0.90;;
42864;SDS011;28511;42.680;23.252;2023-03-31T10:30:49;2.55;;;1.42;;
42864;SDS011;28511;42.680;23.252;2023-03-31T10:33:16;3.60;;;1.20;;
42864;SDS011;28511;42.680;23.252;2023-03-31T10:35:43;5.47;;;1.45;;
42864;SDS011;28511;42.680;23.252;2023-03-31T10:38:16;2.20;;;0.77;;
42864;SDS011;28511;42.680;23.252;2023-03-31T10:40:51;3.58;;;1.73;;
42864;SDS011;28511;42.680;23.252;2023-03-31T10:43:19;4.13;;;1.67;;
42864;SDS011;28511;42.680;23.252;2023-03-31T10:45:48;2.55;;;0.90;;
42864;SDS011;28511;42.680;23.252;2023-03-31T10:48:22;5.75;;;1.00;;
42864;SDS011;28511;42.680;23.252;2023-03-31T10:50:48;2.72;;;1.30;;
42864;SDS011;28511;42.680;23.252;2023-03-31T10:53:14;1.52;;;1.38;;
42864;SDS011;28511;42.680;23.252;2023-03-31T10:58:30;4.65;;;1.40;;
42864;SDS011;28511;42.680;23.252;2023-03-31T11:01:11;1.33;;;0.93;;
42864;SDS011;28511;42.680;23.252;2023-03-31T11:11:21;2.33;;;1.30;;
42864;SDS011;28511;42.680;23.252;2023-03-31T11:14:00;1.77;;;0.90;;
42864;SDS011;28511;42.680;23.252;2023-03-31T11:16:41;3.00;;;1.25;;
42864;SDS011;28511;42.680;23.252;2023-03-31T11:32:11;3.80;;;1.33;;
42864;SDS011;28511;42.680;23.252;2023-03-31T11:34:58;1.58;;;0.95;;
42864;SDS011;28511;42.680;23.252;2023-03-31T11:42:50;7.38;;;1.35;;
42864;SDS011;28511;42.680;23.252;2023-03-31T11:45:18;7.75;;;2.45;;
42864;SDS011;28511;42.680;23.252;2023-03-31T11:47:45;2.78;;;1.52;;
42864;SDS011;28511;42.680;23.252;2023-03-31T11:50:17;3.63;;;2.35;;
42864;SDS011;28511;42.680;23.252;2023-03-31T11:52:49;1.83;;;1.30;;
42864;SDS011;28511;42.680;23.252;2023-03-31T11:55:17;1.92;;;1.00;;
42864;SDS011;28511;42.680;23.252;2023-03-31T12:00:27;1.05;;;0.70;;
42864;SDS011;28511;42.680;23.252;2023-03-31T12:03:08;8.32;;;1.00;;
42864;SDS011;28511;42.680;23.252;2023-03-31T12:05:36;2.17;;;1.13;;
42864;SDS011;28511;42.680;23.252;2023-03-31T12:12:57;1.10;;;1.05;;
42864;SDS011;28511;42.680;23.252;2023-03-31T12:17:52;2.60;;;1.05;;
42864;SDS011;28511;42.680;23.252;2023-03-31T12:20:29;7.75;;;2.03;;
42864;SDS011;28511;42.680;23.252;2023-03-31T12:22:56;1.20;;;0.90;;
42864;SDS011;28511;42.680;23.252;2023-03-31T12:25:22;3.20;;;1.33;;
42864;SDS011;28511;42.680;23.252;2023-03-31T12:27:50;2.90;;;1.30;;
42864;SDS011;28511;42.680;23.252;2023-03-31T12:32:48;1.53;;;1.13;;
42864;SDS011;28511;42.680;23.252;2023-03-31T12:45:45;2.20;;;1.25;;
42864;SDS011;28511;42.680;23.252;2023-03-31T12:53:23;1.98;;;1.65;;
42864;SDS011;28511;42.680;23.252;2023-03-31T12:55:56;2.13;;;1.00;;
42864;SDS011;28511;42.680;23.252;2023-03-31T13:06:00;3.22;;;1.17;;
42864;SDS011;28511;42.680;23.252;2023-03-31T13:11:10;2.20;;;1.30;;
42864;SDS011;28511;42.680;23.252;2023-03-31T13:13:35;2.30;;;1.02;;
42864;SDS011;28511;42.680;23.252;2023-03-31T13:16:04;2.35;;;1.60;;
42864;SDS011;28511;42.680;23.252;2023-03-31T13:18:30;3.30;;;1.05;;
42864;SDS011;28511;42.680;23.252;2023-03-31T13:21:00;4.53;;;0.73;;
42864;SDS011;28511;42.680;23.252;2023-03-31T13:23:27;2.60;;;1.00;;
42864;SDS011;28511;42.680;23.252;2023-03-31T13:25:55;1.40;;;1.00;;
42864;SDS011;28511;42.680;23.252;2023-03-31T13:33:14;1.65;;;1.10;;
42864;SDS011;28511;42.680;23.252;2023-03-31T13:35:45;2.08;;;1.30;;
42864;SDS011;28511;42.680;23.252;2023-03-31T13:38:29;1.42;;;1.05;;
42864;SDS011;28511;42.680;23.252;2023-03-31T14:02:22;4.50;;;1.02;;
42864;SDS011;28511;42.680;23.252;2023-03-31T14:07:20;5.80;;;1.27;;
42864;SDS011;28511;42.680;23.252;2023-03-31T14:09:46;0.60;;;0.60;;
42864;SDS011;28511;42.680;23.252;2023-03-31T14:12:35;3.05;;;1.30;;
42864;SDS011;28511;42.680;23.252;2023-03-31T14:15:01;4.22;;;1.48;;
42864;SDS011;28511;42.680;23.252;2023-03-31T14:17:28;4.53;;;1.85;;
42864;SDS011;28511;42.680;23.252;2023-03-31T14:20:07;1.45;;;1.17;;
42864;SDS011;28511;42.680;23.252;2023-03-31T14:22:45;1.88;;;1.10;;
42864;SDS011;28511;42.680;23.252;2023-03-31T14:25:19;2.00;;;0.90;;
42864;SDS011;28511;42.680;23.252;2023-03-31T14:35:34;2.17;;;1.20;;
42864;SDS011;28511;42.680;23.252;2023-03-31T14:38:09;2.50;;;0.90;;
42864;SDS011;28511;42.680;23.252;2023-03-31T14:40:41;0.80;;;0.77;;
42864;SDS011;28511;42.680;23.252;2023-03-31T14:43:15;3.30;;;1.42;;
42864;SDS011;28511;42.680;23.252;2023-03-31T14:45:42;2.47;;;1.45;;
42864;SDS011;28511;42.680;23.252;2023-03-31T14:48:10;2.88;;;1.33;;
42864;SDS011;28511;42.680;23.252;2023-03-31T14:50:44;7.32;;;1.88;;
42864;SDS011;28511;42.680;23.252;2023-03-31T14:53:13;3.70;;;0.95;;
42864;SDS011;28511;42.680;23.252;2023-03-31T14:55:39;1.38;;;0.93;;
42864;SDS011;28511;42.680;23.252;2023-03-31T14:58:05;4.22;;;1.05;;
42864;SDS011;28511;42.680;23.252;2023-03-31T15:00:32;3.70;;;1.30;;
42864;SDS011;28511;42.680;23.252;2023-03-31T15:02:58;1.60;;;1.20;;
42864;SDS011;28511;42.680;23.252;2023-03-31T15:08:01;3.58;;;1.42;;
42864;SDS011;28511;42.680;23.252;2023-03-31T15:10:29;1.40;;;1.00;;
42864;SDS011;28511;42.680;23.252;2023-03-31T15:15:21;1.40;;;0.80;;
42864;SDS011;28511;42.680;23.252;2023-03-31T15:17:47;1.52;;;0.93;;
42864;SDS011;28511;42.680;23.252;2023-03-31T15:20:24;2.60;;;0.85;;
42864;SDS011;28511;42.680;23.252;2023-03-31T15:22:50;2.60;;;1.38;;
42864;SDS011;28511;42.680;23.252;2023-03-31T15:25:15;2.90;;;1.15;;
42864;SDS011;28511;42.680;23.252;2023-03-31T15:28:03;4.85;;;0.90;;
42864;SDS011;28511;42.680;23.252;2023-03-31T15:30:27;4.03;;;2.22;;
42864;SDS011;28511;42.680;23.252;2023-03-31T15:32:53;3.20;;;2.03;;
42864;SDS011;28511;42.680;23.252;2023-03-31T15:35:29;1.25;;;1.15;;
42864;SDS011;28511;42.680;23.252;2023-03-31T15:37:56;4.82;;;1.70;;
42864;SDS011;28511;42.680;23.252;2023-03-31T15:40:23;3.30;;;1.58;;
42864;SDS011;28511;42.680;23.252;2023-03-31T15:42:49;2.05;;;1.30;;
42864;SDS011;28511;42.680;23.252;2023-03-31T15:48:13;2.20;;;1.13;;
42864;SDS011;28511;42.680;23.252;2023-03-31T15:50:41;3.53;;;1.25;;
42864;SDS011;28511;42.680;23.252;2023-03-31T15:53:20;4.25;;;1.50;;
42864;SDS011;28511;42.680;23.252;2023-03-31T15:58:14;3.40;;;1.60;;
42864;SDS011;28511;42.680;23.252;2023-03-31T16:01:13;5.05;;;1.50;;
42864;SDS011;28511;42.680;23.252;2023-03-31T16:03:35;2.05;;;1.27;;
42864;SDS011;28511;42.680;23.252;2023-03-31T16:08:47;1.17;;;0.82;;
42864;SDS011;28511;42.680;23.252;2023-03-31T16:11:16;5.97;;;1.73;;
42864;SDS011;28511;42.680;23.252;2023-03-31T16:13:43;5.13;;;1.60;;
42864;SDS011;28511;42.680;23.252;2023-03-31T16:16:10;5.35;;;1.25;;
42864;SDS011;28511;42.680;23.252;2023-03-31T16:18:37;3.60;;;1.10;;
42864;SDS011;28511;42.680;23.252;2023-03-31T16:21:04;1.77;;;1.20;;
42864;SDS011;28511;42.680;23.252;2023-03-31T16:23:32;1.65;;;1.20;;
42864;SDS011;28511;42.680;23.252;2023-03-31T16:25:58;3.40;;;1.50;;
42864;SDS011;28511;42.680;23.252;2023-03-31T16:28:28;2.58;;;1.38;;
42864;SDS011;28511;42.680;23.252;2023-03-31T16:30:54;5.60;;;1.30;;
42864;SDS011;28511;42.680;23.252;2023-03-31T16:33:20;1.25;;;0.85;;
42864;SDS011;28511;42.680;23.252;2023-03-31T16:35:48;4.07;;;1.40;;
42864;SDS011;28511;42.680;23.252;2023-03-31T16:38:15;2.83;;;1.40;;
42864;SDS011;28511;42.680;23.252;2023-03-31T16:40:44;4.38;;;2.47;;
42864;SDS011;28511;42.680;23.252;2023-03-31T16:43:14;7.82;;;2.55;;
42864;SDS011;28511;42.680;23.252;2023-03-31T16:45:42;4.65;;;1.33;;
42864;SDS011;28511;42.680;23.252;2023-03-31T16:48:07;5.25;;;2.00;;
42864;SDS011;28511;42.680;23.252;2023-03-31T16:50:33;7.43;;;3.10;;
42864;SDS011;28511;42.680;23.252;2023-03-31T16:52:59;4.75;;;2.15;;
42864;SDS011;28511;42.680;23.252;2023-03-31T16:55:24;4.65;;;2.05;;
42864;SDS011;28511;42.680;23.252;2023-03-31T16:57:50;4.10;;;2.63;;
42864;SDS011;28511;42.680;23.252;2023-03-31T17:00:16;5.05;;;2.60;;
42864;SDS011;28511;42.680;23.252;2023-03-31T17:02:42;7.32;;;2.65;;
42864;SDS011;28511;42.680;23.252;2023-03-31T17:05:07;10.48;;;3.35;;
42864;SDS011;28511;42.680;23.252;2023-03-31T17:07:33;9.18;;;3.08;;
42864;SDS011;28511;42.680;23.252;2023-03-31T17:09:58;7.20;;;3.05;;
42864;SDS011;28511;42.680;23.252;2023-03-31T17:12:24;5.75;;;3.38;;
42864;SDS011;28511;42.680;23.252;2023-03-31T17:14:49;8.43;;;3.40;;
42864;SDS011;28511;42.680;23.252;2023-03-31T17:17:15;13.30;;;4.57;;
42864;SDS011;28511;42.680;23.252;2023-03-31T17:19:40;8.30;;;3.03;;
42864;SDS011;28511;42.680;23.252;2023-03-31T17:22:06;10.98;;;4.65;;
42864;SDS011;28511;42.680;23.252;2023-03-31T17:24:31;11.98;;;4.35;;
42864;SDS011;28511;42.680;23.252;2023-03-31T17:26:56;10.50;;;3.55;;
42864;SDS011;28511;42.680;23.252;2023-03-31T17:29:22;8.20;;;4.07;;
42864;SDS011;28511;42.680;23.252;2023-03-31T17:31:47;4.00;;;2.10;;
42864;SDS011;28511;42.680;23.252;2023-03-31T17:34:12;5.50;;;2.95;;